Time;durP1;ratioP1;P1;durP2;ratioP2;P2;SDS_P1;SDS_P2;PMS_P1;PMS_P2;Temp;Humidity;BMP_temperature;BMP_pressure;BME280_temperature;BME280_humidity;BME280_pressure;Samples;Min_cycle;Max_cycle;Signal;HPM_P1;HPM_P2
2022/01/10 00:02:16;;;;;;;32.95;6.03;;;;;;;;;;4938452;28;20067;-80
2022/01/10 00:04:42;;;;;;;38.72;5.47;;;;;;;;;;4923733;29;20027;-79
2022/01/10 00:07:08;;;;;;;23.00;5.95;;;;;;;;;;4945824;28;20590;-80
2022/01/10 00:09:34;;;;;;;20.95;5.38;;;;;;;;;;4927539;29;20066;-79
2022/01/10 00:12:00;;;;;;;39.38;6.00;;;;;;;;;;4925671;29;20070;-79
2022/01/10 00:14:26;;;;;;;42.63;6.03;;;;;;;;;;4924125;29;21106;-79
2022/01/10 00:16:52;;;;;;;25.98;5.22;;;;;;;;;;4936567;28;20050;-79
2022/01/10 00:19:19;;;;;;;20.55;4.55;;;;;;;;;;4940553;28;20036;-80
2022/01/10 00:21:45;;;;;;;22.75;4.70;;;;;;;;;;4929800;28;20335;-79
2022/01/10 00:24:11;;;;;;;40.72;6.13;;;;;;;;;;4924675;29;20043;-79
2022/01/10 00:26:37;;;;;;;26.58;6.25;;;;;;;;;;4942359;28;20034;-79
2022/01/10 00:29:03;;;;;;;32.00;5.10;;;;;;;;;;4925481;29;20396;-80
2022/01/10 00:31:29;;;;;;;36.47;5.53;;;;;;;;;;4925536;28;20047;-80
2022/01/10 00:33:55;;;;;;;36.88;4.80;;;;;;;;;;4929916;29;20558;-80
2022/01/10 00:36:21;;;;;;;27.70;5.05;;;;;;;;;;4929039;29;20484;-79
2022/01/10 00:38:48;;;;;;;21.80;4.68;;;;;;;;;;4925010;28;20452;-80
2022/01/10 00:41:14;;;;;;;28.05;5.20;;;;;;;;;;4923090;28;20027;-80
2022/01/10 00:43:45;;;;;;;30.55;4.03;;;;;;;;;;4942723;28;20119;-79
2022/01/10 00:46:12;;;;;;;22.27;4.60;;;;;;;;;;4926796;28;20031;-79
2022/01/10 00:48:38;;;;;;;32.80;4.95;;;;;;;;;;4924351;29;20032;-80
2022/01/10 00:51:04;;;;;;;20.10;4.10;;;;;;;;;;4929117;28;20408;-79
2022/01/10 00:53:30;;;;;;;28.83;4.45;;;;;;;;;;4925079;28;20042;-80
2022/01/10 00:55:56;;;;;;;27.10;4.25;;;;;;;;;;4923277;28;20039;-80
2022/01/10 00:58:22;;;;;;;29.77;5.05;;;;;;;;;;4925307;29;20161;-79
2022/01/10 01:00:48;;;;;;;38.55;4.90;;;;;;;;;;4926437;28;20047;-79
2022/01/10 01:03:14;;;;;;;18.95;4.53;;;;;;;;;;4938110;28;20417;-79
2022/01/10 01:05:43;;;;;;;26.25;5.25;;;;;;;;;;4941858;29;20399;-80
2022/01/10 01:08:10;;;;;;;32.95;3.88;;;;;;;;;;4940595;28;20035;-80
2022/01/10 01:15:45;;;;;;;25.67;4.47;;;;;;;;;;4945849;28;20041;-80
2022/01/10 01:18:19;;;;;;;22.85;4.13;;;;;;;;;;4935133;28;20114;-80
2022/01/10 01:24:01;;;;;;;28.17;4.38;;;;;;;;;;4935776;29;20031;-79
2022/01/10 01:26:16;;;;;;;30.40;4.82;;;;;;;;;;4939354;28;20498;-80
2022/01/10 01:28:42;;;;;;;26.90;4.65;;;;;;;;;;4923801;28;20296;-79
2022/01/10 01:31:08;;;;;;;23.65;3.55;;;;;;;;;;4931985;29;20712;-80
2022/01/10 01:33:34;;;;;;;33.13;4.82;;;;;;;;;;4918790;29;20339;-79
2022/01/10 01:36:00;;;;;;;29.77;4.88;;;;;;;;;;4925934;29;20380;-80
2022/01/10 01:38:26;;;;;;;20.17;4.00;;;;;;;;;;4922786;28;20582;-80
2022/01/10 01:41:09;;;;;;;22.73;4.85;;;;;;;;;;4926888;29;20495;-80
2022/01/10 01:43:35;;;;;;;30.67;4.93;;;;;;;;;;4927950;29;20043;-80
2022/01/10 01:46:01;;;;;;;20.92;3.97;;;;;;;;;;4945356;28;20114;-80
2022/01/10 01:48:27;;;;;;;21.65;5.18;;;;;;;;;;4937234;28;20032;-80
2022/01/10 01:50:53;;;;;;;20.30;4.78;;;;;;;;;;4931684;28;20038;-80
2022/01/10 01:53:19;;;;;;;37.80;5.00;;;;;;;;;;4925056;29;20408;-80
2022/01/10 01:55:45;;;;;;;24.02;4.55;;;;;;;;;;4923425;29;20065;-80
2022/01/10 01:58:11;;;;;;;33.28;4.70;;;;;;;;;;4943620;28;20031;-80
2022/01/10 02:00:37;;;;;;;21.30;4.80;;;;;;;;;;4923445;28;20058;-80
2022/01/10 02:03:03;;;;;;;23.17;4.93;;;;;;;;;;4944767;28;20035;-80
2022/01/10 02:05:29;;;;;;;17.67;4.63;;;;;;;;;;4948066;28;20024;-80
2022/01/10 02:07:55;;;;;;;19.20;4.88;;;;;;;;;;4956729;28;20035;-79
2022/01/10 02:10:22;;;;;;;27.40;4.97;;;;;;;;;;4940952;28;20185;-80
2022/01/10 02:12:48;;;;;;;24.17;4.80;;;;;;;;;;4961225;28;20034;-79
2022/01/10 02:15:33;;;;;;;22.17;5.20;;;;;;;;;;4943188;28;23196;-80
2022/01/10 02:18:00;;;;;;;23.58;4.70;;;;;;;;;;4942605;28;20106;-80
2022/01/10 02:20:28;;;;;;;33.90;5.45;;;;;;;;;;4960325;28;20027;-79
2022/01/10 02:22:55;;;;;;;21.17;4.97;;;;;;;;;;4955664;28;20129;-79
2022/01/10 02:25:21;;;;;;;28.92;5.05;;;;;;;;;;4949273;28;20510;-80
2022/01/10 02:27:48;;;;;;;20.15;5.25;;;;;;;;;;4947310;28;20067;-80
2022/01/10 02:30:14;;;;;;;21.65;4.75;;;;;;;;;;4963211;28;20023;-80
2022/01/10 02:32:40;;;;;;;18.50;4.28;;;;;;;;;;4944596;28;20043;-79
2022/01/10 02:35:17;;;;;;;21.95;5.13;;;;;;;;;;4949758;28;20133;-80
2022/01/10 02:37:43;;;;;;;20.83;4.78;;;;;;;;;;4944525;28;20487;-79
2022/01/10 02:40:13;;;;;;;21.83;5.15;;;;;;;;;;4948927;28;20543;-80
2022/01/10 02:42:40;;;;;;;24.85;4.72;;;;;;;;;;4944503;28;20117;-80
2022/01/10 02:45:06;;;;;;;33.22;4.93;;;;;;;;;;4947763;28;20125;-80
2022/01/10 02:47:32;;;;;;;31.27;4.70;;;;;;;;;;4947362;28;20117;-80
2022/01/10 02:49:59;;;;;;;12.75;3.97;;;;;;;;;;4941346;28;20065;-80
2022/01/10 02:52:25;;;;;;;26.67;5.03;;;;;;;;;;4944639;28;20026;-80
2022/01/10 02:54:51;;;;;;;41.97;6.05;;;;;;;;;;4946614;28;20554;-80
2022/01/10 02:57:17;;;;;;;21.65;5.25;;;;;;;;;;4967755;28;20034;-80
2022/01/10 02:59:43;;;;;;;23.00;5.25;;;;;;;;;;4943074;28;20027;-80
2022/01/10 03:02:10;;;;;;;29.00;4.78;;;;;;;;;;4949487;28;20043;-80
2022/01/10 03:04:37;;;;;;;28.95;5.25;;;;;;;;;;4951669;28;20491;-80
2022/01/10 03:07:03;;;;;;;17.42;4.10;;;;;;;;;;4948847;28;20043;-80
2022/01/10 03:09:29;;;;;;;22.15;5.47;;;;;;;;;;4942635;28;20301;-80
2022/01/10 03:11:55;;;;;;;26.10;4.85;;;;;;;;;;4946640;28;20434;-80
2022/01/10 03:14:21;;;;;;;33.38;5.55;;;;;;;;;;4939990;28;20122;-80
2022/01/10 03:16:47;;;;;;;17.23;4.35;;;;;;;;;;4948254;28;20134;-80
2022/01/10 03:19:13;;;;;;;28.92;4.40;;;;;;;;;;4946352;28;20386;-80
2022/01/10 03:21:39;;;;;;;36.33;5.18;;;;;;;;;;4947586;28;20030;-80
2022/01/10 03:24:05;;;;;;;24.70;5.00;;;;;;;;;;4956588;28;20018;-80
2022/01/10 03:26:32;;;;;;;45.30;6.57;;;;;;;;;;4954657;28;20042;-80
2022/01/10 03:28:58;;;;;;;30.08;6.03;;;;;;;;;;4959109;28;20098;-80
2022/01/10 03:31:24;;;;;;;24.60;5.55;;;;;;;;;;4948742;28;20574;-79
2022/01/10 03:33:50;;;;;;;20.77;5.05;;;;;;;;;;4938910;28;20073;-80
2022/01/10 03:36:17;;;;;;;30.20;5.25;;;;;;;;;;4951585;28;20511;-79
2022/01/10 03:38:43;;;;;;;21.40;4.60;;;;;;;;;;4943519;28;20034;-79
2022/01/10 03:41:09;;;;;;;29.02;4.32;;;;;;;;;;4946804;28;20031;-79
2022/01/10 03:43:35;;;;;;;28.70;4.90;;;;;;;;;;4948373;28;20037;-80
2022/01/10 03:46:01;;;;;;;20.35;4.78;;;;;;;;;;4958874;28;20440;-79
2022/01/10 03:48:27;;;;;;;22.67;5.10;;;;;;;;;;4946284;28;20070;-79
2022/01/10 03:50:54;;;;;;;28.92;5.95;;;;;;;;;;4944758;28;20066;-79
2022/01/10 03:53:20;;;;;;;20.83;5.78;;;;;;;;;;4945673;28;20027;-79
2022/01/10 03:55:46;;;;;;;28.42;5.60;;;;;;;;;;4942719;28;20101;-79
2022/01/10 03:58:13;;;;;;;39.45;5.75;;;;;;;;;;4943670;28;20479;-80
2022/01/10 04:00:39;;;;;;;22.25;5.30;;;;;;;;;;4958369;28;20027;-79
2022/01/10 04:03:06;;;;;;;40.95;6.20;;;;;;;;;;4936288;28;20062;-79
2022/01/10 04:05:34;;;;;;;24.00;5.43;;;;;;;;;;4923573;29;20020;-79
2022/01/10 04:08:00;;;;;;;28.10;7.10;;;;;;;;;;4924435;29;20073;-79
2022/01/10 04:10:26;;;;;;;19.00;6.13;;;;;;;;;;4936728;28;20318;-79
2022/01/10 04:12:52;;;;;;;24.95;6.68;;;;;;;;;;4944834;28;20086;-79
2022/01/10 04:15:18;;;;;;;26.02;6.22;;;;;;;;;;4927667;28;20058;-79
2022/01/10 04:17:45;;;;;;;20.00;5.40;;;;;;;;;;4938913;28;20020;-79
2022/01/10 04:20:11;;;;;;;32.90;6.30;;;;;;;;;;4928030;28;20090;-79
2022/01/10 04:22:37;;;;;;;26.48;6.25;;;;;;;;;;4925137;28;20511;-79
2022/01/10 04:25:04;;;;;;;28.08;6.28;;;;;;;;;;4919785;29;20027;-79
2022/01/10 04:27:32;;;;;;;29.95;7.35;;;;;;;;;;4926169;28;20079;-79
2022/01/10 04:30:01;;;;;;;25.15;6.65;;;;;;;;;;4928515;29;22801;-79
2022/01/10 04:32:30;;;;;;;24.25;5.55;;;;;;;;;;4924435;29;20492;-79
2022/01/10 04:34:56;;;;;;;19.88;5.68;;;;;;;;;;4925814;29;20701;-79
2022/01/10 04:37:22;;;;;;;20.67;7.32;;;;;;;;;;4925625;29;20027;-79
2022/01/10 04:39:48;;;;;;;21.00;6.55;;;;;;;;;;4942647;28;20062;-79
2022/01/10 04:42:14;;;;;;;26.42;7.75;;;;;;;;;;4923557;28;20742;-79
2022/01/10 04:44:41;;;;;;;35.35;7.63;;;;;;;;;;4941139;28;20115;-79
2022/01/10 04:47:07;;;;;;;30.38;7.88;;;;;;;;;;4926283;28;20135;-80
2022/01/10 04:49:56;;;;;;;23.60;6.80;;;;;;;;;;4924368;29;20039;-79
2022/01/10 04:52:19;;;;;;;31.27;7.18;;;;;;;;;;4941952;28;20039;-79
2022/01/10 04:54:45;;;;;;;31.23;7.95;;;;;;;;;;4927922;28;20031;-79
2022/01/10 04:57:11;;;;;;;40.45;8.50;;;;;;;;;;4941664;28;20040;-79
2022/01/10 04:59:37;;;;;;;30.80;8.80;;;;;;;;;;4929565;29;20082;-79
2022/01/10 05:02:04;;;;;;;27.48;6.65;;;;;;;;;;4953944;28;20051;-79
2022/01/10 05:04:30;;;;;;;37.30;8.65;;;;;;;;;;4947833;28;20087;-79
2022/01/10 05:06:56;;;;;;;36.75;7.95;;;;;;;;;;4943257;28;20035;-79
2022/01/10 05:09:22;;;;;;;24.98;8.18;;;;;;;;;;4948315;28;20098;-79
2022/01/10 05:11:48;;;;;;;33.63;8.95;;;;;;;;;;4943358;28;20474;-79
2022/01/10 05:14:14;;;;;;;30.02;9.98;;;;;;;;;;4940555;28;20035;-79
2022/01/10 05:16:40;;;;;;;34.35;8.20;;;;;;;;;;4944979;28;20031;-79
2022/01/10 05:19:07;;;;;;;31.75;8.60;;;;;;;;;;4939869;28;20070;-79
2022/01/10 05:21:33;;;;;;;25.10;8.32;;;;;;;;;;4941129;28;20471;-79
2022/01/10 05:23:59;;;;;;;38.20;8.60;;;;;;;;;;4944790;28;20027;-79
2022/01/10 05:26:26;;;;;;;19.13;6.85;;;;;;;;;;4944093;28;20109;-79
2022/01/10 05:28:54;;;;;;;41.58;8.43;;;;;;;;;;4957073;28;20435;-79
2022/01/10 05:31:21;;;;;;;29.98;8.77;;;;;;;;;;4944663;28;20495;-79
2022/01/10 05:33:47;;;;;;;29.92;8.93;;;;;;;;;;4946164;28;20527;-79
2022/01/10 05:36:26;;;;;;;32.00;9.48;;;;;;;;;;4954117;28;20027;-79
2022/01/10 05:38:52;;;;;;;33.47;12.35;;;;;;;;;;4940570;28;20027;-79
2022/01/10 05:41:21;;;;;;;41.97;13.73;;;;;;;;;;4944611;28;20042;-79
2022/01/10 05:43:47;;;;;;;28.38;8.52;;;;;;;;;;4939237;28;20507;-79
2022/01/10 05:46:16;;;;;;;38.15;10.13;;;;;;;;;;4940478;28;20031;-79
2022/01/10 05:48:46;;;;;;;39.40;10.07;;;;;;;;;;4945195;28;20490;-79
2022/01/10 05:51:16;;;;;;;34.10;9.95;;;;;;;;;;4944716;28;20062;-79
2022/01/10 05:53:43;;;;;;;42.45;11.63;;;;;;;;;;4946517;28;20642;-79
2022/01/10 05:56:09;;;;;;;35.03;11.25;;;;;;;;;;4962186;28;20041;-79
2022/01/10 05:58:35;;;;;;;43.85;10.43;;;;;;;;;;4947394;28;20511;-79
2022/01/10 06:01:01;;;;;;;33.20;10.38;;;;;;;;;;4961068;28;20122;-79
2022/01/10 06:03:27;;;;;;;39.63;10.60;;;;;;;;;;4945452;28;20142;-79
2022/01/10 06:05:53;;;;;;;57.35;12.38;;;;;;;;;;4947116;28;20399;-79
2022/01/10 06:08:19;;;;;;;48.17;12.70;;;;;;;;;;4947722;28;20034;-79
2022/01/10 06:10:45;;;;;;;35.38;11.20;;;;;;;;;;4942979;28;20023;-79
2022/01/10 06:13:11;;;;;;;36.85;11.77;;;;;;;;;;4944525;28;20765;-79
2022/01/10 06:15:38;;;;;;;47.10;12.10;;;;;;;;;;4950231;28;20470;-80
2022/01/10 06:18:04;;;;;;;37.58;11.10;;;;;;;;;;4947132;28;20038;-79
2022/01/10 06:20:30;;;;;;;39.30;11.45;;;;;;;;;;4963009;28;20034;-79
2022/01/10 06:22:56;;;;;;;51.92;13.35;;;;;;;;;;4949166;28;20031;-79
2022/01/10 06:25:24;;;;;;;40.00;11.73;;;;;;;;;;4961191;28;20038;-79
2022/01/10 06:27:50;;;;;;;43.17;11.85;;;;;;;;;;4944570;28;20035;-80
2022/01/10 06:30:16;;;;;;;53.65;12.38;;;;;;;;;;4958518;28;20027;-79
2022/01/10 06:32:43;;;;;;;49.40;12.77;;;;;;;;;;4957125;28;20038;-79
2022/01/10 06:35:09;;;;;;;40.03;12.30;;;;;;;;;;4950461;28;20050;-79
2022/01/10 06:37:35;;;;;;;42.60;12.68;;;;;;;;;;4950337;28;20487;-79
2022/01/10 06:40:02;;;;;;;47.05;12.43;;;;;;;;;;4950701;28;20054;-79
2022/01/10 06:42:28;;;;;;;38.33;13.48;;;;;;;;;;4940446;28;20069;-79
2022/01/10 06:44:54;;;;;;;42.75;12.73;;;;;;;;;;4939699;28;20069;-79
2022/01/10 06:47:20;;;;;;;36.60;12.45;;;;;;;;;;4941341;28;20023;-79
2022/01/10 06:49:46;;;;;;;31.42;12.60;;;;;;;;;;4949191;28;20110;-79
2022/01/10 06:52:13;;;;;;;38.05;12.85;;;;;;;;;;4944948;28;20022;-80
2022/01/10 06:54:39;;;;;;;45.58;12.90;;;;;;;;;;4947443;28;20039;-79
2022/01/10 06:57:05;;;;;;;35.85;12.90;;;;;;;;;;4947886;28;20063;-79
2022/01/10 06:59:31;;;;;;;30.80;12.32;;;;;;;;;;4947538;28;20117;-79
2022/01/10 07:02:11;;;;;;;40.67;12.38;;;;;;;;;;4942804;28;20048;-79
2022/01/10 07:04:37;;;;;;;47.88;14.63;;;;;;;;;;4938207;28;20480;-79
2022/01/10 07:07:03;;;;;;;45.63;14.68;;;;;;;;;;4923831;29;20840;-79
2022/01/10 07:09:31;;;;;;;55.40;13.27;;;;;;;;;;4925502;29;20572;-79
2022/01/10 07:11:57;;;;;;;38.88;15.00;;;;;;;;;;4922873;29;20515;-79
2022/01/10 07:14:23;;;;;;;47.60;14.30;;;;;;;;;;4922058;29;20035;-79
2022/01/10 07:16:50;;;;;;;54.60;14.68;;;;;;;;;;4931537;29;20459;-79
2022/01/10 07:19:16;;;;;;;51.70;14.40;;;;;;;;;;4928909;29;20283;-79
2022/01/10 07:21:43;;;;;;;65.20;16.23;;;;;;;;;;4945309;28;20031;-80
2022/01/10 07:24:09;;;;;;;47.78;14.25;;;;;;;;;;4923866;28;20047;-79
2022/01/10 07:26:36;;;;;;;55.63;15.77;;;;;;;;;;4926987;28;20726;-79
2022/01/10 07:29:03;;;;;;;46.85;15.07;;;;;;;;;;4928434;28;20043;-79
2022/01/10 07:31:29;;;;;;;47.25;15.82;;;;;;;;;;4925346;29;20046;-79
2022/01/10 07:33:56;;;;;;;53.13;15.63;;;;;;;;;;4925986;29;20040;-79
2022/01/10 07:36:22;;;;;;;47.95;15.95;;;;;;;;;;4926534;28;20079;-79
2022/01/10 07:38:48;;;;;;;44.50;15.93;;;;;;;;;;4923974;29;20059;-79
2022/01/10 07:41:14;;;;;;;54.38;16.70;;;;;;;;;;4941828;28;20878;-79
2022/01/10 07:43:40;;;;;;;53.38;14.77;;;;;;;;;;4928147;29;20050;-79
2022/01/10 07:46:07;;;;;;;49.58;16.02;;;;;;;;;;4921936;29;20031;-79
2022/01/10 07:48:35;;;;;;;37.38;15.32;;;;;;;;;;4929706;29;20612;-79
2022/01/10 07:51:03;;;;;;;35.67;15.00;;;;;;;;;;4938957;28;20039;-79
2022/01/10 07:53:29;;;;;;;54.00;16.45;;;;;;;;;;4940288;28;20027;-79
2022/01/10 07:55:55;;;;;;;37.08;15.80;;;;;;;;;;4933181;28;20082;-79
2022/01/10 07:58:21;;;;;;;42.20;14.40;;;;;;;;;;4924279;28;20107;-79
2022/01/10 08:00:47;;;;;;;46.67;14.52;;;;;;;;;;4923977;28;20039;-79
2022/01/10 08:03:13;;;;;;;47.53;15.07;;;;;;;;;;4923936;28;20484;-79
2022/01/10 08:05:39;;;;;;;51.47;16.40;;;;;;;;;;4938692;28;20420;-79
2022/01/10 08:08:05;;;;;;;42.97;15.38;;;;;;;;;;4925790;29;20696;-79
2022/01/10 08:10:31;;;;;;;59.90;15.90;;;;;;;;;;4939158;28;20068;-80
2022/01/10 08:12:57;;;;;;;54.28;15.57;;;;;;;;;;4921294;29;20113;-79
2022/01/10 08:15:23;;;;;;;52.72;16.23;;;;;;;;;;4921901;29;20500;-79
2022/01/10 08:17:50;;;;;;;51.10;15.93;;;;;;;;;;4922689;28;20038;-79
2022/01/10 08:20:16;;;;;;;55.58;17.70;;;;;;;;;;4935364;28;20174;-80
2022/01/10 08:22:42;;;;;;;60.83;16.45;;;;;;;;;;4932867;28;20119;-80
2022/01/10 08:25:09;;;;;;;54.47;14.80;;;;;;;;;;4927249;29;20529;-79
2022/01/10 08:27:35;;;;;;;42.10;16.58;;;;;;;;;;4928308;28;20136;-79
2022/01/10 08:30:05;;;;;;;45.25;16.67;;;;;;;;;;4921973;29;20065;-79
2022/01/10 08:32:31;;;;;;;47.15;15.95;;;;;;;;;;4922971;29;20051;-80
2022/01/10 08:34:57;;;;;;;42.90;15.35;;;;;;;;;;4927461;29;20035;-79
2022/01/10 08:37:23;;;;;;;40.35;15.80;;;;;;;;;;4925159;29;20821;-79
2022/01/10 08:39:51;;;;;;;72.32;17.27;;;;;;;;;;4941738;28;20066;-79
2022/01/10 08:42:18;;;;;;;72.78;16.48;;;;;;;;;;4923629;29;20067;-79
2022/01/10 08:44:44;;;;;;;179.88;22.83;;;;;;;;;;4925627;29;20050;-80
2022/01/10 08:47:10;;;;;;;41.05;13.35;;;;;;;;;;4928721;29;20040;-79
2022/01/10 08:49:36;;;;;;;34.42;14.15;;;;;;;;;;4928273;28;20031;-79
2022/01/10 08:52:03;;;;;;;54.05;14.80;;;;;;;;;;4929055;29;20039;-80
2022/01/10 08:54:29;;;;;;;47.60;15.55;;;;;;;;;;4920878;29;20031;-79
2022/01/10 08:56:55;;;;;;;91.47;19.80;;;;;;;;;;4926367;29;20086;-80
2022/01/10 08:59:22;;;;;;;46.35;15.93;;;;;;;;;;4921489;28;20439;-80
2022/01/10 09:01:48;;;;;;;48.50;15.70;;;;;;;;;;4928257;28;20054;-79
2022/01/10 09:04:18;;;;;;;37.90;15.32;;;;;;;;;;4940050;28;20034;-79
2022/01/10 09:06:45;;;;;;;44.63;15.88;;;;;;;;;;4944571;28;20035;-79
2022/01/10 09:09:11;;;;;;;48.10;16.45;;;;;;;;;;4941254;28;20039;-80
2022/01/10 09:11:37;;;;;;;53.55;17.10;;;;;;;;;;4954513;28;20098;-79
2022/01/10 09:14:04;;;;;;;43.90;16.33;;;;;;;;;;4943126;28;22933;-79
2022/01/10 09:16:30;;;;;;;45.75;16.02;;;;;;;;;;4947412;28;20410;-79
2022/01/10 09:18:56;;;;;;;52.80;19.00;;;;;;;;;;4938063;28;20042;-79
2022/01/10 09:21:22;;;;;;;51.55;17.10;;;;;;;;;;4944145;28;20445;-80
2022/01/10 09:23:49;;;;;;;52.53;17.30;;;;;;;;;;4952995;28;20031;-79
2022/01/10 09:26:15;;;;;;;54.63;18.17;;;;;;;;;;4947231;28;20117;-79
2022/01/10 09:28:42;;;;;;;48.40;17.52;;;;;;;;;;4960829;28;20113;-79
2022/01/10 09:31:09;;;;;;;58.70;19.65;;;;;;;;;;4958391;28;20474;-79
2022/01/10 09:33:35;;;;;;;50.65;17.90;;;;;;;;;;4964985;28;20062;-79
2022/01/10 09:36:01;;;;;;;57.50;20.05;;;;;;;;;;4965660;28;20039;-79
2022/01/10 09:38:27;;;;;;;61.50;19.40;;;;;;;;;;4947578;28;20031;-79
2022/01/10 09:40:54;;;;;;;63.10;19.48;;;;;;;;;;4950797;28;20137;-79
2022/01/10 09:43:21;;;;;;;56.28;20.50;;;;;;;;;;4942934;28;20027;-79
2022/01/10 09:45:47;;;;;;;58.92;20.45;;;;;;;;;;4951104;28;20027;-79
2022/01/10 09:48:13;;;;;;;58.28;19.55;;;;;;;;;;4949039;28;20027;-79
2022/01/10 09:50:39;;;;;;;58.13;19.40;;;;;;;;;;4946373;28;20030;-78
2022/01/10 09:53:05;;;;;;;47.67;18.85;;;;;;;;;;4954199;28;20042;-79
2022/01/10 09:55:33;;;;;;;49.33;18.70;;;;;;;;;;4948784;28;20062;-79
2022/01/10 09:58:00;;;;;;;63.45;19.80;;;;;;;;;;4948881;28;20038;-79
2022/01/10 10:00:26;;;;;;;57.85;18.80;;;;;;;;;;4960403;28;20019;-79
2022/01/10 10:02:52;;;;;;;55.92;20.00;;;;;;;;;;4967169;28;20106;-79
2022/01/10 10:05:19;;;;;;;52.47;19.85;;;;;;;;;;4949369;28;20597;-79
2022/01/10 10:07:45;;;;;;;51.33;20.27;;;;;;;;;;4944680;28;20031;-79
2022/01/10 10:10:12;;;;;;;50.25;17.80;;;;;;;;;;4962904;28;20030;-79
2022/01/10 10:12:43;;;;;;;52.47;20.92;;;;;;;;;;4948680;28;20074;-79
2022/01/10 10:15:11;;;;;;;58.72;20.67;;;;;;;;;;4965437;28;20062;-79
2022/01/10 10:17:38;;;;;;;71.20;20.48;;;;;;;;;;4945004;28;20063;-79
2022/01/10 10:20:11;;;;;;;53.22;17.92;;;;;;;;;;4951621;28;20081;-80
2022/01/10 10:22:41;;;;;;;46.97;17.67;;;;;;;;;;4965981;28;20463;-80
2022/01/10 10:25:08;;;;;;;40.13;17.23;;;;;;;;;;4947466;28;20509;-79
2022/01/10 10:27:38;;;;;;;50.60;18.42;;;;;;;;;;4946350;28;20381;-80
2022/01/10 10:30:06;;;;;;;44.30;15.82;;;;;;;;;;4947557;28;20075;-80
2022/01/10 10:32:32;;;;;;;46.00;16.27;;;;;;;;;;4959721;28;20417;-80
2022/01/10 10:34:58;;;;;;;48.22;16.65;;;;;;;;;;4948791;28;20554;-80
2022/01/10 10:37:27;;;;;;;36.28;15.05;;;;;;;;;;4942006;28;20130;-79
2022/01/10 10:39:56;;;;;;;36.30;15.80;;;;;;;;;;4948730;28;20502;-79
2022/01/10 10:42:27;;;;;;;37.65;15.45;;;;;;;;;;4946345;28;20034;-79
2022/01/10 10:44:53;;;;;;;31.52;16.48;;;;;;;;;;4945553;28;20030;-79
2022/01/10 10:47:21;;;;;;;38.58;16.65;;;;;;;;;;4949742;28;20394;-80
2022/01/10 10:49:50;;;;;;;31.42;15.20;;;;;;;;;;4947445;28;20027;-80
2022/01/10 10:52:17;;;;;;;35.63;16.20;;;;;;;;;;4948841;28;20031;-80
2022/01/10 10:54:43;;;;;;;35.80;15.85;;;;;;;;;;4954613;28;20126;-79
2022/01/10 10:57:10;;;;;;;36.40;16.25;;;;;;;;;;4948645;28;20039;-80
2022/01/10 10:59:43;;;;;;;50.75;17.15;;;;;;;;;;4948450;28;20066;-79
2022/01/10 11:02:09;;;;;;;38.13;15.63;;;;;;;;;;4950254;28;20074;-80
2022/01/10 11:04:36;;;;;;;35.58;15.85;;;;;;;;;;4931617;28;20081;-79
2022/01/10 11:07:03;;;;;;;33.38;17.00;;;;;;;;;;4922855;28;20070;-80
2022/01/10 11:09:29;;;;;;;42.05;16.13;;;;;;;;;;4927355;29;20038;-80
2022/01/10 11:11:55;;;;;;;23.70;16.45;;;;;;;;;;4925572;28;20380;-80
2022/01/10 11:14:24;;;;;;;36.35;16.92;;;;;;;;;;4929242;28;20466;-80
2022/01/10 11:16:52;;;;;;;31.13;16.55;;;;;;;;;;4930277;29;20399;-80
2022/01/10 11:19:28;;;;;;;36.95;16.05;;;;;;;;;;4943242;28;20062;-79
2022/01/10 11:21:54;;;;;;;;;;;;;;;;;;4927859;28;20034;-80
2022/01/10 11:24:39;;;;;;;35.42;16.85;;;;;;;;;;4926684;29;20577;-80
2022/01/10 11:27:08;;;;;;;34.65;18.23;;;;;;;;;;4933439;28;20110;-80
2022/01/10 11:29:41;;;;;;;42.50;16.08;;;;;;;;;;4941659;28;20724;-80
2022/01/10 11:32:07;;;;;;;28.73;15.32;;;;;;;;;;4944413;28;20109;-81
2022/01/10 11:34:33;;;;;;;35.03;14.93;;;;;;;;;;4928211;29;20050;-81
2022/01/10 11:37:01;;;;;;;28.52;14.25;;;;;;;;;;4935686;29;20039;-80
2022/01/10 11:39:35;;;;;;;39.40;14.65;;;;;;;;;;4929674;28;20126;-80
2022/01/10 11:42:02;;;;;;;30.42;14.32;;;;;;;;;;4928984;29;20028;-80
2022/01/10 11:44:30;;;;;;;29.60;14.25;;;;;;;;;;4942637;28;20136;-80
2022/01/10 11:46:58;;;;;;;35.80;13.98;;;;;;;;;;4941760;28;20028;-80
2022/01/10 11:49:25;;;;;;;30.52;14.35;;;;;;;;;;4942113;29;20114;-80
2022/01/10 11:51:51;;;;;;;28.60;13.18;;;;;;;;;;4942600;28;20037;-80
2022/01/10 11:54:23;;;;;;;31.58;13.13;;;;;;;;;;4927892;28;20028;-80
2022/01/10 11:56:50;;;;;;;27.38;13.48;;;;;;;;;;4924865;29;20518;-80
2022/01/10 11:59:19;;;;;;;31.77;14.30;;;;;;;;;;4945436;28;20515;-81
2022/01/10 12:01:46;;;;;;;30.65;13.07;;;;;;;;;;4930499;28;20047;-80
2022/01/10 12:04:13;;;;;;;29.27;15.20;;;;;;;;;;4928942;28;20051;-80
2022/01/10 12:06:39;;;;;;;28.52;12.60;;;;;;;;;;4942442;28;20046;-80
2022/01/10 12:09:06;;;;;;;32.15;12.70;;;;;;;;;;4944944;28;20528;-80
2022/01/10 12:11:32;;;;;;;32.35;12.23;;;;;;;;;;4944034;28;20058;-81
2022/01/10 12:13:59;;;;;;;32.30;12.38;;;;;;;;;;4930610;28;20046;-80
2022/01/10 12:16:26;;;;;;;30.35;11.85;;;;;;;;;;4937861;28;20038;-81
2022/01/10 12:18:59;;;;;;;34.85;12.40;;;;;;;;;;4927103;28;20042;-80
2022/01/10 12:21:26;;;;;;;32.65;11.80;;;;;;;;;;4941453;28;20023;-81
2022/01/10 12:23:52;;;;;;;31.75;11.35;;;;;;;;;;4926449;29;20126;-80
2022/01/10 12:26:22;;;;;;;27.98;11.90;;;;;;;;;;4941898;28;20042;-80
2022/01/10 12:28:50;;;;;;;30.67;10.80;;;;;;;;;;4925912;29;20697;-80
2022/01/10 12:31:17;;;;;;;30.33;11.15;;;;;;;;;;4945688;28;20035;-80
2022/01/10 12:33:43;;;;;;;26.95;10.95;;;;;;;;;;4923820;28;20035;-81
2022/01/10 12:36:09;;;;;;;21.95;9.73;;;;;;;;;;4927013;29;20119;-80
2022/01/10 12:38:36;;;;;;;25.77;10.15;;;;;;;;;;4926449;29;20122;-80
2022/01/10 12:41:02;;;;;;;21.42;10.38;;;;;;;;;;4927898;28;20437;-80
2022/01/10 12:43:34;;;;;;;26.15;10.13;;;;;;;;;;4929042;29;20083;-81
2022/01/10 12:46:00;;;;;;;27.08;9.02;;;;;;;;;;4933763;28;20465;-80
2022/01/10 12:48:27;;;;;;;22.73;9.00;;;;;;;;;;4944751;28;20722;-80
2022/01/10 12:50:54;;;;;;;20.92;8.38;;;;;;;;;;4934167;28;20031;-81
2022/01/10 12:53:21;;;;;;;24.83;8.48;;;;;;;;;;4929950;28;20027;-81
2022/01/10 12:55:47;;;;;;;28.90;9.65;;;;;;;;;;4940304;28;20392;-81
2022/01/10 12:58:13;;;;;;;26.30;9.98;;;;;;;;;;4937645;28;20052;-81
2022/01/10 13:00:39;;;;;;;30.90;11.68;;;;;;;;;;4947724;28;20538;-81
2022/01/10 13:03:12;;;;;;;27.60;10.75;;;;;;;;;;4952426;28;20059;-81
2022/01/10 13:05:46;;;;;;;26.85;10.63;;;;;;;;;;4942178;28;20483;-81
2022/01/10 13:08:12;;;;;;;32.78;11.13;;;;;;;;;;4930595;29;20451;-81
2022/01/10 13:10:39;;;;;;;28.10;10.05;;;;;;;;;;4930559;28;20480;-81
2022/01/10 13:13:05;;;;;;;24.58;10.60;;;;;;;;;;4941956;28;20031;-81
2022/01/10 13:15:37;;;;;;;27.80;10.80;;;;;;;;;;4927192;28;20113;-81
2022/01/10 13:18:04;;;;;;;21.13;9.57;;;;;;;;;;4928908;28;20043;-81
2022/01/10 13:20:35;;;;;;;24.73;10.90;;;;;;;;;;4924506;29;20111;-80
2022/01/10 13:23:03;;;;;;;20.88;9.73;;;;;;;;;;4936352;29;20031;-80
2022/01/10 13:25:34;;;;;;;25.25;10.75;;;;;;;;;;4921474;28;20034;-81
2022/01/10 13:28:01;;;;;;;23.92;9.98;;;;;;;;;;4920817;28;20028;-80
2022/01/10 13:30:28;;;;;;;22.83;10.85;;;;;;;;;;4942969;28;20622;-80
2022/01/10 13:32:58;;;;;;;31.27;10.00;;;;;;;;;;4926827;28;20139;-80
2022/01/10 13:35:25;;;;;;;21.15;8.98;;;;;;;;;;4927170;28;20039;-81
2022/01/10 13:38:20;;;;;;;24.38;8.45;;;;;;;;;;4925127;28;20035;-82
2022/01/10 13:40:48;;;;;;;21.83;7.80;;;;;;;;;;4928008;28;20051;-81
2022/01/10 13:43:18;;;;;;;28.17;9.25;;;;;;;;;;4943089;28;20073;-80
2022/01/10 13:45:45;;;;;;;23.98;7.20;;;;;;;;;;4942981;28;20499;-81
2022/01/10 13:48:11;;;;;;;25.30;8.60;;;;;;;;;;4923211;28;20700;-81
2022/01/10 13:50:41;;;;;;;24.38;8.07;;;;;;;;;;4939275;28;20086;-81
2022/01/10 13:53:10;;;;;;;20.38;7.70;;;;;;;;;;4948793;28;20027;-80
2022/01/10 13:55:37;;;;;;;26.75;8.32;;;;;;;;;;4923367;28;20046;-80
2022/01/10 13:58:04;;;;;;;18.77;7.45;;;;;;;;;;4923778;28;20034;-81
2022/01/10 14:00:31;;;;;;;26.27;8.43;;;;;;;;;;4923556;29;20031;-81
2022/01/10 14:03:04;;;;;;;23.17;8.23;;;;;;;;;;4948501;28;20046;-81
2022/01/10 14:05:37;;;;;;;33.25;9.23;;;;;;;;;;4922900;28;20035;-80
2022/01/10 14:08:04;;;;;;;28.48;8.80;;;;;;;;;;4924871;28;20264;-81
2022/01/10 14:10:30;;;;;;;30.65;9.07;;;;;;;;;;4926063;28;20031;-80
2022/01/10 14:12:56;;;;;;;21.92;8.35;;;;;;;;;;4928701;28;20031;-80
2022/01/10 14:15:27;;;;;;;24.50;9.38;;;;;;;;;;4933212;28;20031;-80
2022/01/10 14:17:54;;;;;;;34.08;10.18;;;;;;;;;;4928643;28;20042;-81
2022/01/10 14:20:20;;;;;;;34.05;11.52;;;;;;;;;;4943132;28;20031;-81
2022/01/10 14:22:47;;;;;;;27.77;9.23;;;;;;;;;;4925295;29;20049;-81
2022/01/10 14:25:15;;;;;;;25.67;9.60;;;;;;;;;;4943503;28;20102;-81
2022/01/10 14:27:41;;;;;;;27.60;10.48;;;;;;;;;;4939951;28;20110;-81
2022/01/10 14:30:08;;;;;;;24.48;10.18;;;;;;;;;;4929635;28;20034;-81
2022/01/10 14:32:34;;;;;;;30.80;10.88;;;;;;;;;;4923950;28;20558;-82